Indian Oaks, IL

7:59 AM CST on December 04, 2016 (GMT -0600)
Cap Estates | | Change Station
Active Advisory: Winter Weather Advisory

Elev 620 ft 41.17 °N, 87.83 °W | Updated 4 seconds ago

Overcast
Overcast
32.7 °F
Feels Like 33 °F
N
0.0
Wind Variable Wind from ESE
Gusts 5.6 mph

Today
High -- | Low -- °F
--% Chance of Precip.
Yesterday
High -- | Low -- °F
Precip. -- in
Pressure 30.15 in
Visibility 10.0 miles
Clouds Mostly Cloudy 6500 ft
Overcast 9000 ft
Windchill 33 °F
Dew Point 29 °F
Humidity 87%
Rainfall 0.00 in
Snow Depth Not available.
7:00 AM 4:22 PM
Waxing Crescent, 23% visible
METAR KIKK 041335Z AUTO 09007KT 10SM BKN065 OVC090 00/M02 A3015 RMK AO2 T00001019
Pressure 30.15 in
Visibility 10.0 miles
Clouds Mostly Cloudy 6500 ft
Overcast 9000 ft
Windchill 33 °F
Dew Point 29 °F
Humidity 87%
Rainfall 0.00 in
Snow Depth Not available.
7:00 AM 4:22 PM
Waxing Crescent, 23% visible
METAR KIKK 041335Z AUTO 09007KT 10SM BKN065 OVC090 00/M02 A3015 RMK AO2 T00001019

10-Day Weather Forecast

Almanac

Astronomy

Dec. 04, 2016 Rise Set
Actual Time
Civil Twilight
Nautical Twilight
Astronomical Twilight
Moon
Length of Visible Light
Length of Day
Tomorrow will be .
, % of the Moon is Illuminated

Today's Extremes

State Highs State Lows

Community

WunderPhotos

Upload Photos

1,955,596 photos uploaded!

WunderBlog® & News

Nearby

Air Quality

  Air Quality AQ Index Pollutant
Not available.

Snow Depth

Station Depth Elevation

Earthquake Activity

City Distance Mag. Time & Date
Minimum magnitude displayed is 2.5.

Coastal Water Temperatures

Place Temperature

Stations

Nearby Weather Stations

Station Location Temp. Windchill Dew Point Humidity Wind Precip. Elev Updated Type
                   

Watches & Warnings

Winter Weather Advisory
Issued: 3:52 AM CST Dec. 4, 2016 – National Weather Service

... Winter Weather Advisory in effect from 9 am this morning to
6 PM CST this evening...

The National Weather Service in Chicago has issued a Winter
Weather Advisory for snow... which is in effect from 9 am this
morning to 6 PM CST this evening.

* Timing... light snow will begin by mid morning increasing in
intensity by midday... and then continue until slightly after
sunset.

* Snow accumulations... 2 to 4 inches of wet snow.

* Main impact... slippery conditions are expected on untreated
surfaces creating hazardous travel.

* Other impacts... visibility may fall to around one half mile at
times causing an additional travel hazard.

* Note... impacts may be mitigated by mild Road temperatures on
heavily traveled roads... such as the immediate suburbs of the
city of Chicago.

Precautionary/preparedness actions...

A Winter Weather Advisory for snow means that periods of snow
will cause primarily travel difficulties. Be prepared for snow
covered roads and limited visibilities... and use caution while
driving.